Wake Island Airfield, Wake Island

9:13 PM WAKT on September 17, 2014 (GMT +1200)
Wake Island Army Air Field | Change Station
CLOSE
Current Station
Airport
Location: Wake Island, Wake Island Army,
Elevation: 13 ft
Nearby Weather Stations

Elev 13 ft 19.28 °N, 166.64 °E | Updated 15 minutes ago

Scattered Clouds
Scattered Clouds
82 °F
Feels Like 92 °F
N
17
Wind Variable Wind from East

Today
High -- | Low -- °F
--% Chance of Precip.
Yesterday
High -- | Low -- °F
Precip. -- in
6:41 AM 6:54 PM
Last Quarter, 37% visible
Pressure 29.95 in
Visibility 6.2 miles
Clouds Few 1900 ft
Scattered Clouds 3400 ft
Heat Index 92 °F
Dew Point 79 °F
Humidity 89%
Rainfall 0.17 in
Snow Depth Not available.
UV 0 out of 12
Pollen Not available.
Air Quality Not available.
Flu Activity Not available.
METAR PWAK 170858Z AUTO 08015KT 9999 FEW019 SCT034 28/26 A2993 RMK AO2 SLP142 P0000 60003 51010

More Conditions Fewer Conditions

Pressure 29.95 in
Visibility 6.2 miles
Clouds Few 1900 ft
Scattered Clouds 3400 ft
Heat Index 92 °F
Dew Point 79 °F
Humidity 89%
Rainfall 0.17 in
Snow Depth Not available.
UV 0 out of 12
Pollen Not available.
Air Quality Not available.
Flu Activity Not available.
METAR PWAK 170858Z AUTO 08015KT 9999 FEW019 SCT034 28/26 A2993 RMK AO2 SLP142 P0000 60003 51010

More Conditions Fewer Conditions

10-Day Weather Forecast

Almanac

Astronomy

Sep. 17, 2014 Rise Set
Actual Time 6:41 AM WAKT 6:54 PM WAKT
Civil Twilight 6:19 AM WAKT 7:16 PM WAKT
Nautical Twilight 5:53 AM WAKT 7:42 PM WAKT
Astronomical Twilight 5:28 AM WAKT 8:07 PM WAKT
Moon 12:39 AM WAKT 1:58 PM WAKT
Length of Visible Light 12h 57m
Length of Day
12h 13m
Tomorrow will be 1m 5s shorter.
Last Quarter, 37% of the Moon is Illuminated
Today
Last Quarter
Sep 24
New
Oct 1
First Quarter
Oct 8
Full
Oct 15
Last Quarter

Yesterday's Extremes

Country Highs Country Lows

Community

WunderPhotos

Upload Photos

1,753,991 photos uploaded!

Nearby

Snow Depth

Not available.

Earthquake Activity

City Distance Mag. Time & Date
No recent earthquake activity has been reported nearby.
Minimum magnitude displayed is 2.5.

Coastal Water Temperatures

Place Temperature
No Stations Reporting

Nearby Weather Stations